Time;durP1;ratioP1;P1;durP2;ratioP2;P2;SDS_P1;SDS_P2;PMS_P1;PMS_P2;Temp;Humidity;BMP_temperature;BMP_pressure;BME280_temperature;BME280_humidity;BME280_pressure;Samples;Min_cycle;Max_cycle;Signal;HPM_P1;HPM_P2
2023/07/09 00:00:53;;;;;;;8.07;7.40;;;;;;;21.82;77.12;101056.81;6116157;23;20032;-68
2023/07/09 00:03:20;;;;;;;7.93;7.13;;;;;;;22.13;77.45;101122.56;6093300;23;20021;-67
2023/07/09 00:05:48;;;;;;;8.55;7.07;;;;;;;22.07;77.54;101129.31;6111943;23;20017;-68
2023/07/09 00:08:31;;;;;;;7.63;7.03;;;;;;;22.03;79.11;101141.28;6115244;23;20486;-68
2023/07/09 00:10:58;;;;;;;7.38;6.78;;;;;;;21.94;79.02;101112.78;6112025;23;20605;-68
2023/07/09 00:13:26;;;;;;;13.45;7.80;;;;;;;22.04;78.39;101146.50;6115568;23;20017;-68
2023/07/09 00:15:59;;;;;;;8.05;7.35;;;;;;;21.95;78.77;101106.44;6114914;23;20034;-69
2023/07/09 00:18:26;;;;;;;7.45;6.95;;;;;;;21.65;79.51;101076.25;6112234;23;20018;-68
2023/07/09 00:20:53;;;;;;;7.93;7.20;;;;;;;21.63;79.79;101073.75;6113478;23;20029;-69
2023/07/09 00:23:20;;;;;;;7.82;7.18;;;;;;;21.53;79.74;101080.94;6086131;23;20017;-68
2023/07/09 00:25:47;;;;;;;7.57;6.97;;;;;;;21.83;80.05;101157.38;6116690;23;20657;-67
2023/07/09 00:28:15;;;;;;;8.07;7.35;;;;;;;21.76;81.34;101145.56;6082047;23;20135;-68
2023/07/09 00:30:41;;;;;;;7.80;7.10;;;;;;;21.65;82.47;101149.25;6088521;23;20033;-68
2023/07/09 00:33:13;;;;;;;7.80;7.15;;;;;;;21.54;83.45;101151.19;6085073;23;20089;-68
2023/07/09 00:35:46;;;;;;;7.88;7.10;;;;;;;21.50;83.28;101146.13;6115842;23;20021;-68
2023/07/09 00:38:17;;;;;;;7.85;7.25;;;;;;;21.41;83.68;101146.09;6116521;23;20511;-68
2023/07/09 00:40:56;;;;;;;8.00;7.32;;;;;;;21.34;83.88;101150.31;6109669;23;20036;-70
2023/07/09 00:43:25;;;;;;;8.55;7.78;;;;;;;21.32;84.95;101153.13;6085097;23;20082;-68
2023/07/09 00:46:15;;;;;;;8.00;7.30;;;;;;;21.33;85.37;101160.16;6115633;23;20031;-69
2023/07/09 00:48:43;;;;;;;8.10;7.40;;;;;;;21.16;85.98;101137.63;6112891;23;20814;-68
2023/07/09 00:51:13;;;;;;;8.38;7.53;;;;;;;21.04;85.30;101096.88;6063491;23;20080;-68
2023/07/09 00:53:45;;;;;;;7.70;7.10;;;;;;;21.26;85.08;101137.66;6084516;23;20022;-69
2023/07/09 00:56:16;;;;;;;7.93;7.13;;;;;;;21.43;84.38;101152.16;6122904;23;20029;-69
2023/07/09 00:58:47;;;;;;;8.20;7.32;;;;;;;21.44;83.79;101149.34;6087639;23;20022;-69
2023/07/09 01:01:18;;;;;;;7.68;7.18;;;;;;;21.15;83.44;101095.94;6109346;23;20554;-69
2023/07/09 01:03:49;;;;;;;7.43;6.85;;;;;;;21.52;83.50;101149.50;6113684;23;20024;-69
2023/07/09 01:06:23;;;;;;;8.15;7.30;;;;;;;21.42;82.70;101135.28;6116109;23;20035;-69
2023/07/09 01:08:53;;;;;;;8.23;7.53;;;;;;;21.32;83.01;101115.75;6113475;23;20025;-69
2023/07/09 01:11:22;;;;;;;7.47;6.90;;;;;;;21.52;83.07;101149.50;6081357;23;20033;-69
2023/07/09 01:13:51;;;;;;;7.80;7.20;;;;;;;21.51;83.17;101153.16;6109761;23;20117;-68
2023/07/09 01:16:20;;;;;;;11.88;7.70;;;;;;;21.52;83.38;101159.34;6084104;23;20030;-71
2023/07/09 01:18:48;;;;;;;8.20;7.53;;;;;;;21.28;83.41;101127.69;6107016;23;20018;-68
2023/07/09 01:21:18;;;;;;;8.88;6.88;;;;;;;21.50;83.87;101163.97;6086102;23;20029;-68
2023/07/09 01:23:46;;;;;;;8.10;7.40;;;;;;;21.51;83.59;101163.84;6112911;23;20546;-68
2023/07/09 01:26:15;;;;;;;7.50;7.00;;;;;;;21.21;83.65;101129.22;6113500;23;20028;-68
2023/07/09 01:28:43;;;;;;;8.02;7.30;;;;;;;21.46;84.32;101186.63;6113922;23;20048;-68
2023/07/09 01:31:11;;;;;;;7.93;7.05;;;;;;;21.29;84.04;101150.75;6115253;23;20122;-68
2023/07/09 01:33:39;;;;;;;9.15;8.20;;;;;;;21.42;84.28;101177.16;6112214;23;20079;-68
2023/07/09 01:36:07;;;;;;;7.40;6.85;;;;;;;21.38;84.74;101184.59;6087597;23;20033;-68
2023/07/09 01:38:34;;;;;;;8.27;7.50;;;;;;;21.04;84.82;101139.59;6092652;23;20305;-71
2023/07/09 01:41:01;;;;;;;8.68;7.88;;;;;;;21.28;84.73;101178.41;6112729;23;20722;-68
2023/07/09 01:43:29;;;;;;;7.95;7.30;;;;;;;21.25;84.96;101190.22;6068452;23;20019;-68
2023/07/09 01:45:57;;;;;;;8.10;7.40;;;;;;;21.20;85.25;101194.28;6116287;23;20028;-69
2023/07/09 01:48:25;;;;;;;7.38;6.80;;;;;;;21.15;86.20;101200.03;6113556;23;20032;-70
2023/07/09 01:50:53;;;;;;;8.02;7.32;;;;;;;20.80;86.79;101152.44;6090914;23;20028;-68
2023/07/09 01:53:26;;;;;;;8.27;7.60;;;;;;;20.48;87.25;101116.09;6113476;23;20029;-69
2023/07/09 01:55:54;;;;;;;8.27;7.22;;;;;;;21.00;88.35;101206.72;6113694;23;20472;-70
2023/07/09 01:58:24;;;;;;;7.50;6.90;;;;;;;20.65;88.99;101179.50;6082970;23;20021;-69
2023/07/09 02:00:51;;;;;;;8.55;7.30;;;;;;;20.69;90.62;101186.25;6105252;23;20420;-68
2023/07/09 02:03:17;;;;;;;8.20;7.50;;;;;;;20.82;91.16;101220.69;6112647;23;20026;-70
2023/07/09 02:05:44;;;;;;;7.45;6.85;;;;;;;20.74;91.76;101220.50;6112351;23;20611;-69
2023/07/09 02:08:10;;;;;;;7.63;6.88;;;;;;;20.24;91.63;101145.72;6108456;23;20619;-70
2023/07/09 02:10:36;;;;;;;9.00;8.10;;;;;;;20.29;92.89;101172.81;6117007;23;20021;-68
2023/07/09 02:13:03;;;;;;;8.25;7.55;;;;;;;20.57;93.65;101229.94;6113790;23;20045;-68
2023/07/09 02:15:30;;;;;;;8.98;7.32;;;;;;;20.47;94.56;101221.06;6113214;23;20041;-68
2023/07/09 02:17:58;;;;;;;8.68;7.70;;;;;;;20.29;93.78;101205.66;6080182;23;20029;-71
2023/07/09 02:20:26;;;;;;;8.18;7.50;;;;;;;20.26;95.07;101216.56;6085619;23;20033;-69
2023/07/09 02:22:52;;;;;;;9.48;7.85;;;;;;;20.38;95.10;101224.50;6086378;23;20028;-70
2023/07/09 02:25:19;;;;;;;8.00;7.20;;;;;;;20.20;95.70;101205.59;6095205;23;20531;-68
2023/07/09 02:27:46;;;;;;;9.00;7.45;;;;;;;20.28;96.69;101232.44;6110901;23;20034;-69
2023/07/09 02:30:12;;;;;;;8.27;7.47;;;;;;;20.03;96.75;101193.69;6114537;23;20591;-68
2023/07/09 02:32:39;;;;;;;8.13;7.32;;;;;;;20.03;97.47;101202.53;6084060;23;20420;-68
2023/07/09 02:35:06;;;;;;;8.15;7.50;;;;;;;20.22;98.11;101236.44;6109235;23;20032;-70
2023/07/09 02:37:33;;;;;;;8.68;7.30;;;;;;;20.17;98.51;101241.34;6082499;23;20021;-68
2023/07/09 02:39:59;;;;;;;8.57;7.78;;;;;;;20.12;98.87;101233.72;6114334;23;20052;-69
2023/07/09 02:42:26;;;;;;;8.23;7.63;;;;;;;19.86;99.76;101208.41;6081793;23;20162;-68
2023/07/09 02:44:52;;;;;;;7.97;7.28;;;;;;;19.90;100.00;101216.00;6115457;23;20025;-69
2023/07/09 02:47:19;;;;;;;7.93;7.30;;;;;;;19.99;100.00;101238.41;6083418;23;20018;-68
2023/07/09 02:49:46;;;;;;;8.95;7.63;;;;;;;20.04;100.00;101243.34;6110128;23;20049;-70
2023/07/09 02:52:13;;;;;;;7.82;7.13;;;;;;;19.20;100.00;101115.34;6083320;23;20417;-67
2023/07/09 02:54:39;;;;;;;8.23;7.53;;;;;;;20.03;100.00;101244.31;6112025;23;20030;-68
2023/07/09 02:57:06;;;;;;;7.85;7.15;;;;;;;20.02;100.00;101253.28;6088805;23;20040;-70
2023/07/09 02:59:33;;;;;;;7.55;6.95;;;;;;;19.80;100.00;101225.75;6112535;23;20025;-69
2023/07/09 03:02:00;;;;;;;8.45;7.65;;;;;;;19.96;100.00;101254.63;6110832;23;20096;-68
2023/07/09 03:04:27;;;;;;;8.27;7.47;;;;;;;19.90;100.00;101255.13;6110052;23;20026;-68
2023/07/09 03:06:53;;;;;;;8.30;7.60;;;;;;;19.37;100.00;101176.03;6108935;23;20518;-69
2023/07/09 03:09:20;;;;;;;7.82;7.13;;;;;;;19.97;100.00;101259.00;6110629;23;20023;-70
2023/07/09 03:11:48;;;;;;;8.10;7.45;;;;;;;19.52;100.00;101196.06;6082121;23;20092;-70
2023/07/09 03:14:16;;;;;;;8.07;7.35;;;;;;;19.67;100.00;101235.72;6096554;23;20445;-70
2023/07/09 03:16:42;;;;;;;8.73;7.93;;;;;;;19.70;100.00;101252.28;6111768;23;20159;-70
2023/07/09 03:19:09;;;;;;;12.13;8.27;;;;;;;19.48;100.00;101229.22;6098079;23;20034;-69
2023/07/09 03:21:35;;;;;;;9.57;7.40;;;;;;;19.30;100.00;101183.66;6113766;23;20021;-70
2023/07/09 03:24:02;;;;;;;10.63;8.02;;;;;;;19.87;100.00;101285.53;6076996;23;20045;-69
2023/07/09 03:26:28;;;;;;;8.98;8.25;;;;;;;19.92;100.00;101286.03;6110183;23;20105;-68
2023/07/09 03:28:55;;;;;;;8.93;7.57;;;;;;;19.97;100.00;101296.28;6093140;23;20021;-69
2023/07/09 03:31:22;;;;;;;7.35;6.82;;;;;;;19.62;100.00;101224.56;6116206;23;20029;-68
2023/07/09 03:33:51;;;;;;;7.72;7.13;;;;;;;19.72;100.00;101241.53;6117525;23;20029;-68
2023/07/09 03:36:19;;;;;;;8.32;7.53;;;;;;;19.05;100.00;101133.41;6112106;23;20667;-67
2023/07/09 03:38:47;;;;;;;9.18;7.70;;;;;;;20.07;100.00;101294.56;6113953;23;20035;-67
2023/07/09 03:41:13;;;;;;;7.57;6.97;;;;;;;20.05;100.00;101288.50;6114563;23;20015;-68
2023/07/09 03:43:40;;;;;;;9.45;8.48;;;;;;;20.10;100.00;101288.13;6122399;23;20025;-68
2023/07/09 03:46:06;;;;;;;7.35;6.85;;;;;;;20.02;100.00;101274.59;6084710;23;20031;-68
2023/07/09 03:48:33;;;;;;;9.23;7.68;;;;;;;20.16;100.00;101302.75;6093966;23;20012;-68
2023/07/09 03:50:59;;;;;;;8.48;7.68;;;;;;;20.15;100.00;101301.91;6092185;23;20126;-70
2023/07/09 03:53:26;;;;;;;9.25;8.30;;;;;;;20.25;100.00;101297.50;6112921;23;20028;-68
2023/07/09 03:55:54;;;;;;;7.78;7.05;;;;;;;20.32;100.00;101287.16;6115499;23;20021;-69
2023/07/09 03:58:21;;;;;;;7.55;6.95;;;;;;;20.38;100.00;101293.81;6115035;23;20048;-68
2023/07/09 04:00:48;;;;;;;8.73;7.85;;;;;;;20.41;100.00;101304.22;6089081;23;20038;-69
2023/07/09 04:03:15;;;;;;;8.82;7.80;;;;;;;19.78;100.00;101190.41;6112887;23;20050;-69
2023/07/09 04:05:41;;;;;;;7.68;7.07;;;;;;;19.99;100.00;101237.56;6114376;23;20523;-68
2023/07/09 04:08:07;;;;;;;9.23;7.38;;;;;;;20.44;100.00;101299.47;6086092;23;20018;-68
2023/07/09 04:10:34;;;;;;;8.88;8.07;;;;;;;20.45;99.89;101282.50;6112342;23;20653;-68
2023/07/09 04:13:00;;;;;;;12.50;7.93;;;;;;;20.58;99.14;101295.63;6085819;23;20020;-69
2023/07/09 04:15:27;;;;;;;8.45;7.53;;;;;;;20.74;98.63;101294.34;6116801;23;20023;-69
2023/07/09 04:17:54;;;;;;;8.02;7.32;;;;;;;20.95;96.28;101288.97;6085805;23;20042;-68
2023/07/09 04:20:21;;;;;;;7.45;6.95;;;;;;;20.77;93.45;101216.72;6115241;23;20025;-68
2023/07/09 04:22:48;;;;;;;9.00;7.40;;;;;;;21.25;91.81;101267.63;6088546;23;20036;-68
2023/07/09 04:25:14;;;;;;;8.00;7.30;;;;;;;21.50;90.00;101258.28;6097062;23;20081;-68
2023/07/09 04:27:41;;;;;;;7.60;7.03;;;;;;;21.80;87.76;101253.84;6113229;23;20579;-68
2023/07/09 04:30:12;;;;;;;8.30;7.50;;;;;;;21.81;85.55;101207.44;6085987;23;20040;-68
2023/07/09 04:32:38;;;;;;;8.25;7.55;;;;;;;22.14;84.24;101207.97;6113820;23;20397;-68
2023/07/09 04:35:11;;;;;;;8.20;7.55;;;;;;;22.34;81.65;101202.63;6113131;23;20045;-69
2023/07/09 04:37:38;;;;;;;7.93;7.30;;;;;;;22.53;81.28;101202.53;6112631;23;20013;-68
2023/07/09 04:40:06;;;;;;;8.20;7.40;;;;;;;22.62;79.50;101190.97;6115648;23;20096;-68
2023/07/09 04:42:35;;;;;;;10.25;7.18;;;;;;;22.88;78.77;101179.59;6109908;23;20014;-69
2023/07/09 04:45:06;;;;;;;7.88;7.07;;;;;;;22.93;76.78;101129.13;6087497;23;20026;-71
2023/07/09 04:47:32;;;;;;;8.00;7.30;;;;;;;23.04;75.87;101157.56;6111764;23;20357;-68
2023/07/09 04:49:59;;;;;;;8.07;7.38;;;;;;;23.13;76.90;101163.84;6112597;23;20025;-68
2023/07/09 04:52:25;;;;;;;7.93;7.13;;;;;;;23.27;75.45;101121.34;6111563;23;20065;-69
2023/07/09 04:54:51;;;;;;;10.95;7.03;;;;;;;23.89;73.01;101156.25;6113293;23;20030;-68
2023/07/09 04:57:18;;;;;;;8.13;7.43;;;;;;;23.99;72.25;101128.47;6073313;23;20285;-68
2023/07/09 04:59:44;;;;;;;7.70;6.97;;;;;;;24.47;69.50;101109.13;6115050;23;20178;-68
2023/07/09 05:02:11;;;;;;;9.27;7.07;;;;;;;24.14;68.80;101027.69;6088164;23;20052;-68
2023/07/09 05:04:37;;;;;;;8.38;7.57;;;;;;;24.30;68.86;101059.09;6113332;23;20567;-68
2023/07/09 05:07:04;;;;;;;14.15;7.38;;;;;;;24.77;66.96;101060.44;6116972;23;20025;-67
2023/07/09 05:09:32;;;;;;;8.02;7.30;;;;;;;24.53;67.70;101062.06;6110800;23;20080;-68
2023/07/09 05:12:00;;;;;;;7.82;7.18;;;;;;;24.80;66.45;101017.19;6089631;23;20680;-69
2023/07/09 05:14:27;;;;;;;7.15;6.65;;;;;;;25.17;65.52;101040.03;6110803;23;20047;-68
2023/07/09 05:16:54;;;;;;;7.63;7.10;;;;;;;25.07;64.96;101003.44;6087800;23;20071;-68
2023/07/09 05:19:20;;;;;;;7.85;7.15;;;;;;;25.16;64.26;100974.75;6112876;23;20038;-70
2023/07/09 05:21:47;;;;;;;8.18;7.20;;;;;;;26.01;62.72;101016.44;6109509;23;20100;-69
2023/07/09 05:24:13;;;;;;;7.60;6.90;;;;;;;26.03;61.25;100980.28;6112717;23;20566;-68
2023/07/09 05:26:39;;;;;;;7.78;7.10;;;;;;;26.01;60.58;100957.28;6113308;23;20096;-68
2023/07/09 05:29:06;;;;;;;7.63;6.97;;;;;;;25.42;60.54;100869.78;6089735;23;20022;-68
2023/07/09 05:31:32;;;;;;;7.40;6.80;;;;;;;26.15;59.95;100947.63;6112504;23;20053;-68
2023/07/09 05:34:00;;;;;;;7.97;7.40;;;;;;;26.34;59.70;100952.59;6091302;23;20627;-68
2023/07/09 05:36:27;;;;;;;7.30;6.80;;;;;;;26.27;58.17;100887.84;6109027;23;20168;-68
2023/07/09 05:38:55;;;;;;;7.38;6.80;;;;;;;26.00;59.11;100905.34;6101344;23;20106;-68
2023/07/09 05:41:23;;;;;;;7.32;6.80;;;;;;;26.16;59.40;100966.28;6112435;23;20024;-69
2023/07/09 05:43:51;;;;;;;7.65;7.05;;;;;;;26.64;57.79;100944.66;6110110;23;20025;-68
2023/07/09 05:46:21;;;;;;;7.82;7.07;;;;;;;27.08;57.18;100953.91;6086121;23;20026;-68
2023/07/09 05:48:48;;;;;;;9.13;7.30;;;;;;;27.43;55.84;100930.84;6113163;23;20037;-67
2023/07/09 05:51:15;;;;;;;7.10;6.60;;;;;;;27.15;55.25;100912.56;6114433;23;20017;-69
2023/07/09 05:53:41;;;;;;;7.72;7.13;;;;;;;26.93;55.97;100921.56;6111363;23;20029;-67
2023/07/09 05:56:08;;;;;;;7.85;7.05;;;;;;;26.93;55.89;100914.31;6107968;23;20037;-68
2023/07/09 05:58:34;;;;;;;7.78;7.18;;;;;;;26.58;55.15;100854.72;6111952;23;20012;-68
2023/07/09 06:01:01;;;;;;;8.00;7.18;;;;;;;26.74;56.00;100920.19;6113216;23;20025;-67
2023/07/09 06:03:29;;;;;;;7.65;6.95;;;;;;;26.90;55.43;100903.88;6108568;23;20030;-68
2023/07/09 06:05:59;;;;;;;7.47;6.88;;;;;;;27.56;54.31;100919.41;6111612;23;20679;-67
2023/07/09 06:08:27;;;;;;;7.90;7.30;;;;;;;27.69;52.55;100867.53;6084896;23;20021;-69
2023/07/09 06:10:58;;;;;;;9.15;8.20;;;;;;;27.92;52.81;100924.06;6112210;23;20067;-69
2023/07/09 06:13:26;;;;;;;7.70;7.20;;;;;;;28.00;52.02;100867.28;6080455;23;20097;-69
2023/07/09 06:15:54;;;;;;;7.22;6.68;;;;;;;28.14;51.57;100869.09;6110544;23;20079;-68
2023/07/09 06:18:22;;;;;;;8.10;7.45;;;;;;;28.02;52.14;100903.88;6085325;23;20321;-70
2023/07/09 06:20:52;;;;;;;7.40;6.90;;;;;;;28.11;51.65;100901.88;6114341;23;20032;-69
2023/07/09 06:23:19;;;;;;;7.07;6.57;;;;;;;27.91;50.99;100841.47;6083809;23;20029;-69
2023/07/09 06:25:47;;;;;;;7.68;7.07;;;;;;;28.22;51.34;100882.47;6109898;23;20028;-69
2023/07/09 06:28:15;;;;;;;7.40;6.82;;;;;;;28.21;50.50;100829.53;6109731;23;20021;-69
2023/07/09 06:30:42;;;;;;;7.35;6.85;;;;;;;28.34;50.67;100890.91;6093225;23;20314;-69
2023/07/09 06:33:09;;;;;;;7.35;6.75;;;;;;;28.17;51.78;100914.59;6112708;23;20018;-69
2023/07/09 06:35:36;;;;;;;7.75;7.15;;;;;;;28.00;52.09;100903.19;6113034;23;20029;-68
2023/07/09 06:38:02;;;;;;;7.22;6.72;;;;;;;27.99;52.52;100917.72;6089088;23;20040;-68
2023/07/09 06:40:29;;;;;;;7.55;6.95;;;;;;;27.84;52.79;100916.88;6113508;23;20507;-69
2023/07/09 06:42:55;;;;;;;8.15;7.13;;;;;;;27.53;53.32;100901.75;6117970;23;20035;-69
2023/07/09 06:45:22;;;;;;;7.70;6.93;;;;;;;27.42;54.78;100972.28;6113935;23;20033;-69
2023/07/09 06:47:49;;;;;;;7.75;7.15;;;;;;;27.62;54.19;100981.53;6113050;23;20040;-69
2023/07/09 06:50:15;;;;;;;7.13;6.63;;;;;;;27.68;54.01;100960.22;6110822;23;20037;-69
2023/07/09 06:52:42;;;;;;;8.13;7.43;;;;;;;27.43;54.09;100937.06;6085217;23;20025;-68
2023/07/09 06:55:08;;;;;;;7.55;7.00;;;;;;;27.83;54.18;100996.13;6087044;23;20025;-69
2023/07/09 06:57:35;;;;;;;8.30;7.68;;;;;;;28.00;53.27;100970.63;6115191;23;20017;-69
2023/07/09 07:00:02;;;;;;;7.57;6.88;;;;;;;28.23;52.32;100945.41;6113916;23;20010;-69
2023/07/09 07:02:29;;;;;;;7.55;7.05;;;;;;;27.99;53.24;100968.16;6110102;23;20263;-68
2023/07/09 07:04:55;;;;;;;7.63;7.03;;;;;;;27.99;52.67;100947.41;6114624;23;20032;-69
2023/07/09 07:07:22;;;;;;;7.78;6.90;;;;;;;27.90;53.02;100936.91;6114169;23;20021;-68
2023/07/09 07:09:48;;;;;;;7.35;6.72;;;;;;;27.99;52.89;100936.59;6109798;23;20034;-68
2023/07/09 07:12:26;;;;;;;7.28;6.53;;;;;;;28.17;52.36;100960.47;6094795;23;20021;-69
2023/07/09 07:14:53;;;;;;;7.32;6.72;;;;;;;28.21;51.72;100933.97;6108136;23;20014;-69
2023/07/09 07:17:20;;;;;;;7.20;6.70;;;;;;;27.92;52.52;100915.97;6079084;23;20014;-68
2023/07/09 07:19:47;;;;;;;7.07;6.50;;;;;;;28.19;52.77;100974.63;6108686;23;20026;-68
2023/07/09 07:22:14;;;;;;;7.60;6.90;;;;;;;28.21;51.39;100917.78;6109413;23;20077;-69
2023/07/09 07:24:40;;;;;;;7.15;6.65;;;;;;;27.87;52.98;100937.25;6103413;23;20036;-69
2023/07/09 07:27:08;;;;;;;7.50;6.90;;;;;;;28.33;52.08;100953.19;6108710;23;20037;-69
2023/07/09 07:29:34;;;;;;;7.18;6.47;;;;;;;28.55;52.45;100968.41;6111262;23;20014;-69
2023/07/09 07:32:01;;;;;;;7.72;6.93;;;;;;;28.59;51.36;100921.09;6112420;23;20037;-70
2023/07/09 07:34:28;;;;;;;7.07;6.53;;;;;;;28.99;50.67;100942.22;6086489;23;20061;-70
2023/07/09 07:36:54;;;;;;;7.18;6.68;;;;;;;28.90;49.88;100887.47;6112168;23;20036;-70
2023/07/09 07:39:21;;;;;;;8.10;7.53;;;;;;;28.98;49.52;100887.31;6109027;23;20099;-68
2023/07/09 07:41:47;;;;;;;7.30;6.70;;;;;;;29.19;49.89;100931.59;6114902;23;20049;-68
2023/07/09 07:44:13;;;;;;;7.55;6.90;;;;;;;29.27;49.08;100884.63;6111396;23;20039;-68
2023/07/09 07:46:40;;;;;;;7.80;7.18;;;;;;;29.63;48.55;100890.66;6111280;23;20050;-68
2023/07/09 07:49:06;;;;;;;8.60;7.05;;;;;;;29.25;47.48;100792.94;6085824;23;20009;-69
2023/07/09 07:51:33;;;;;;;7.22;6.72;;;;;;;29.95;48.82;100918.09;6111179;23;20029;-68
2023/07/09 07:54:00;;;;;;;7.57;6.88;;;;;;;29.92;47.45;100883.31;6109612;23;20598;-70
2023/07/09 07:56:26;;;;;;;8.02;7.32;;;;;;;29.87;48.45;100918.28;6113285;23;20099;-69
2023/07/09 07:58:53;;;;;;;7.50;6.80;;;;;;;29.96;48.98;100938.69;6105420;23;20025;-68
2023/07/09 08:01:19;;;;;;;7.25;6.75;;;;;;;30.44;47.46;100931.59;6083866;23;20213;-68
2023/07/09 08:03:46;;;;;;;7.85;7.10;;;;;;;30.58;47.38;100930.56;6111452;23;20508;-68
2023/07/09 08:06:12;;;;;;;7.00;6.50;;;;;;;30.79;46.34;100907.84;6090616;23;20105;-68
2023/07/09 08:08:39;;;;;;;7.90;7.20;;;;;;;30.55;45.36;100828.03;6115709;23;20036;-68
2023/07/09 08:11:07;;;;;;;7.55;6.80;;;;;;;30.55;46.00;100877.66;6087855;23;20034;-68
2023/07/09 08:13:35;;;;;;;7.50;6.93;;;;;;;30.49;47.02;100881.19;6111712;23;20054;-68
2023/07/09 08:16:02;;;;;;;6.97;6.47;;;;;;;30.54;46.55;100877.84;6118542;23;20013;-68
2023/07/09 08:18:29;;;;;;;7.63;7.00;;;;;;;30.59;46.61;100876.19;6083078;23;20026;-68
2023/07/09 08:20:56;;;;;;;7.13;6.53;;;;;;;30.88;45.82;100854.28;6116612;23;20021;-69
2023/07/09 08:23:22;;;;;;;7.75;6.63;;;;;;;30.95;46.49;100898.50;6114982;23;20108;-68
2023/07/09 08:25:53;;;;;;;7.20;6.70;;;;;;;31.24;44.89;100866.56;6112144;23;20527;-68
2023/07/09 08:28:19;;;;;;;7.65;6.93;;;;;;;31.36;43.53;100810.59;6088371;23;20433;-68
2023/07/09 08:30:46;;;;;;;7.32;6.72;;;;;;;31.30;43.60;100798.72;6114483;23;20029;-68
2023/07/09 08:33:13;;;;;;;7.00;6.40;;;;;;;31.33;43.64;100776.63;6088484;23;20017;-67
2023/07/09 08:35:43;;;;;;;7.32;6.70;;;;;;;31.44;44.15;100826.63;6106886;23;20555;-68
2023/07/09 08:38:09;;;;;;;6.80;6.40;;;;;;;31.48;42.75;100760.09;6115758;23;20010;-68
2023/07/09 08:40:52;;;;;;;7.50;7.00;;;;;;;31.80;42.86;100769.06;6094582;23;20013;-68
2023/07/09 08:44:00;;;;;;;7.38;6.80;;;;;;;31.74;42.64;100750.97;6114114;23;20021;-68
2023/07/09 08:46:59;;;;;;;7.80;6.90;;;;;;;31.82;42.10;100755.28;6093291;23;20557;-68
2023/07/09 08:49:38;;;;;;;7.80;7.20;;;;;;;31.94;41.61;100763.56;6111758;23;20009;-68
2023/07/09 08:52:14;;;;;;;7.25;6.65;;;;;;;32.22;41.59;100757.75;6113446;23;20056;-67
2023/07/09 08:54:43;;;;;;;6.70;6.20;;;;;;;32.28;40.54;100742.44;6091475;23;20054;-68
2023/07/09 08:57:25;;;;;;;7.07;6.43;;;;;;;32.52;40.57;100782.34;6117596;23;20036;-68
2023/07/09 09:00:07;;;;;;;7.60;6.93;;;;;;;32.25;40.11;100675.81;6086164;23;20018;-68
2023/07/09 09:02:46;;;;;;;7.50;7.00;;;;;;;32.56;39.85;100742.00;6109963;23;20020;-67
2023/07/09 09:05:18;;;;;;;7.35;6.72;;;;;;;32.69;40.76;100798.91;6088176;23;20029;-67
2023/07/09 09:07:50;;;;;;;8.13;7.40;;;;;;;32.92;39.70;100721.31;6114104;23;20559;-68
2023/07/09 09:10:21;;;;;;;7.60;7.00;;;;;;;33.01;39.61;100768.88;6113865;23;21312;-68
2023/07/09 09:13:11;;;;;;;7.70;7.20;;;;;;;33.21;39.59;100795.88;6113598;23;20090;-68
2023/07/09 09:15:41;;;;;;;7.45;6.85;;;;;;;33.14;38.53;100721.72;6112639;23;20018;-68
2023/07/09 09:18:16;;;;;;;7.47;6.78;;;;;;;33.09;38.75;100735.97;6108969;23;20035;-70
2023/07/09 09:20:45;;;;;;;7.55;6.95;;;;;;;33.30;38.51;100717.53;6087679;23;20022;-68
2023/07/09 09:23:15;;;;;;;7.50;6.90;;;;;;;33.62;37.30;100728.16;6109908;23;20035;-68
2023/07/09 09:25:49;;;;;;;7.30;6.70;;;;;;;33.75;37.43;100745.13;6111825;23;20468;-68
2023/07/09 09:28:35;;;;;;;6.90;6.40;;;;;;;33.93;37.45;100746.94;6109855;23;20045;-67
2023/07/09 09:31:07;;;;;;;7.57;7.05;;;;;;;33.95;37.33;100752.16;6116385;23;20030;-67
2023/07/09 09:33:41;;;;;;;8.07;7.50;;;;;;;34.03;37.27;100761.91;6084428;23;20699;-67
2023/07/09 09:36:15;;;;;;;7.57;6.97;;;;;;;34.03;36.49;100708.25;6109700;23;20413;-68
2023/07/09 09:38:42;;;;;;;7.97;7.28;;;;;;;33.76;37.61;100760.41;6080009;23;20032;-68
2023/07/09 09:41:18;;;;;;;7.95;7.40;;;;;;;33.97;36.96;100745.41;6112144;23;20049;-70
2023/07/09 09:43:46;;;;;;;8.45;7.65;;;;;;;33.76;37.01;100691.53;6115197;23;20779;-69
2023/07/09 09:46:21;;;;;;;7.32;6.78;;;;;;;33.92;37.73;100744.47;6095265;23;20102;-68
2023/07/09 09:48:54;;;;;;;7.60;6.95;;;;;;;33.85;37.75;100760.91;6109681;23;20081;-69
2023/07/09 09:51:23;;;;;;;7.38;6.88;;;;;;;33.89;38.09;100761.28;6078495;23;20038;-68
2023/07/09 09:53:58;;;;;;;7.88;7.10;;;;;;;34.05;37.75;100759.78;6109068;23;21823;-68
2023/07/09 09:56:36;;;;;;;7.68;7.07;;;;;;;33.89;36.71;100712.28;6083286;23;20113;-70
2023/07/09 09:59:05;;;;;;;7.38;6.68;;;;;;;34.22;36.83;100749.03;6104542;23;20130;-68
2023/07/09 10:01:38;;;;;;;7.32;6.93;;;;;;;34.13;36.56;100716.66;6083311;23;20021;-68
2023/07/09 10:04:05;;;;;;;7.28;6.78;;;;;;;34.05;36.50;100691.69;6089106;23;20105;-68
2023/07/09 10:06:42;;;;;;;7.28;6.78;;;;;;;34.37;36.82;100757.56;6109930;23;20025;-68
2023/07/09 10:09:43;;;;;;;7.10;6.70;;;;;;;34.59;36.64;100784.25;6114593;23;20692;-69
2023/07/09 10:12:26;;;;;;;7.50;6.90;;;;;;;34.54;35.31;100657.69;6084926;23;20018;-68
2023/07/09 10:15:20;;;;;;;7.35;6.78;;;;;;;34.47;35.76;100684.22;6110346;23;20025;-68
2023/07/09 10:17:49;;;;;;;8.10;7.25;;;;;;;34.92;35.23;100702.66;6096901;23;20021;-67
2023/07/09 10:20:37;;;;;;;7.97;7.32;;;;;;;34.89;35.54;100738.59;6085432;23;20112;-68
2023/07/09 10:23:28;;;;;;;7.07;6.47;;;;;;;35.20;35.37;100755.59;6112628;23;20044;-68
2023/07/09 10:26:08;;;;;;;7.35;6.80;;;;;;;35.48;34.35;100740.31;6109164;23;20036;-68
2023/07/09 10:28:47;;;;;;;7.53;6.90;;;;;;;35.54;33.59;100669.19;6111506;23;20021;-68
2023/07/09 10:31:24;;;;;;;7.20;6.70;;;;;;;35.61;34.84;100771.94;6114959;23;20040;-68
2023/07/09 10:34:32;;;;;;;7.63;7.10;;;;;;;35.45;35.29;100757.19;6082257;23;20018;-69
2023/07/09 10:37:12;;;;;;;6.97;6.55;;;;;;;35.63;34.24;100751.50;6110494;23;20026;-69
2023/07/09 10:39:46;;;;;;;7.32;6.70;;;;;;;35.70;33.56;100683.13;6081205;23;20864;-69
2023/07/09 10:42:28;;;;;;;;;;;;;;;35.85;34.74;100797.25;6112240;23;20029;-66
2023/07/09 10:45:00;;;;;;;7.78;6.78;;;;;;;36.07;33.40;100770.03;6114078;23;19916;-66
2023/07/09 10:47:41;;;;;;;7.50;6.95;;;;;;;35.83;33.30;100681.97;6116015;23;20024;-67
2023/07/09 10:50:15;;;;;;;7.45;6.88;;;;;;;35.38;32.50;100593.56;6107503;23;20014;-68
2023/07/09 10:52:46;;;;;;;7.75;6.97;;;;;;;35.93;33.83;100785.94;6083352;23;20097;-68
2023/07/09 10:55:23;;;;;;;7.47;6.97;;;;;;;35.21;32.87;100629.03;6112450;23;20025;-68
2023/07/09 10:58:33;;;;;;;7.50;6.90;;;;;;;36.18;32.90;100730.91;6111053;23;20538;-68
2023/07/09 11:00:59;;;;;;;6.95;6.50;;;;;;;36.06;33.13;100735.59;6114794;23;20029;-68
2023/07/09 11:03:52;;;;;;;7.28;6.78;;;;;;;36.18;33.11;100735.53;6090084;23;20036;-68
2023/07/09 11:06:27;;;;;;;7.63;6.60;;;;;;;35.34;32.75;100573.31;6112964;23;20438;-68
2023/07/09 11:08:56;;;;;;;7.30;6.80;;;;;;;36.02;33.61;100743.44;6114970;23;20093;-68
2023/07/09 11:11:45;;;;;;;7.68;7.10;;;;;;;36.18;32.61;100709.03;6112321;23;20025;-68
2023/07/09 11:14:23;;;;;;;7.20;6.63;;;;;;;36.18;32.51;100675.44;6099268;23;20241;-67
2023/07/09 11:16:49;;;;;;;7.57;7.03;;;;;;;36.40;33.45;100741.88;6097118;23;20308;-68
2023/07/09 11:19:20;;;;;;;7.70;7.07;;;;;;;36.08;33.86;100727.97;6103134;23;21580;-68
2023/07/09 11:22:13;;;;;;;7.90;7.25;;;;;;;36.52;32.95;100733.56;6110747;23;20034;-68
2023/07/09 11:24:52;;;;;;;7.40;6.90;;;;;;;36.54;32.35;100672.09;6108975;23;20706;-70
2023/07/09 11:27:24;;;;;;;7.20;6.70;;;;;;;36.28;32.79;100678.31;6114776;23;20030;-67
2023/07/09 11:30:02;;;;;;;7.43;6.72;;;;;;;36.29;32.65;100658.09;6113278;23;20048;-68
2023/07/09 11:32:29;;;;;;;8.15;6.93;;;;;;;36.07;33.40;100688.09;6110026;23;20025;-68
2023/07/09 11:35:09;;;;;;;7.68;6.90;;;;;;;36.56;33.02;100732.00;6112763;23;20017;-68
2023/07/09 11:37:45;;;;;;;8.30;7.60;;;;;;;36.88;33.41;100797.81;6110517;23;20021;-68